sensor_id;sensor_type;location;lat;lon;timestamp;temperature;humidity
22153;DHT22;11242;50.536;12.688;2023-09-08T00:01:04;12.00;99.90
22153;DHT22;11242;50.536;12.688;2023-09-08T00:03:30;11.90;99.90
22153;DHT22;11242;50.536;12.688;2023-09-08T00:05:55;12.10;99.90
22153;DHT22;11242;50.536;12.688;2023-09-08T00:08:21;12.10;99.90
22153;DHT22;11242;50.536;12.688;2023-09-08T00:10:47;12.00;99.90
22153;DHT22;11242;50.536;12.688;2023-09-08T00:13:12;11.90;99.90
22153;DHT22;11242;50.536;12.688;2023-09-08T00:15:38;11.80;99.90
22153;DHT22;11242;50.536;12.688;2023-09-08T00:18:04;11.80;99.90
22153;DHT22;11242;50.536;12.688;2023-09-08T00:20:29;11.80;99.90
22153;DHT22;11242;50.536;12.688;2023-09-08T00:22:55;11.80;99.90
22153;DHT22;11242;50.536;12.688;2023-09-08T00:25:21;11.80;99.90
22153;DHT22;11242;50.536;12.688;2023-09-08T00:27:47;11.80;99.90
22153;DHT22;11242;50.536;12.688;2023-09-08T00:30:12;11.90;99.90
22153;DHT22;11242;50.536;12.688;2023-09-08T00:32:38;11.90;99.90
22153;DHT22;11242;50.536;12.688;2023-09-08T00:35:06;11.90;99.90
22153;DHT22;11242;50.536;12.688;2023-09-08T00:37:33;11.80;99.90
22153;DHT22;11242;50.536;12.688;2023-09-08T00:39:59;11.80;99.90
22153;DHT22;11242;50.536;12.688;2023-09-08T00:42:24;11.80;99.90
22153;DHT22;11242;50.536;12.688;2023-09-08T00:44:50;11.70;99.90
22153;DHT22;11242;50.536;12.688;2023-09-08T00:47:15;11.60;99.90
22153;DHT22;11242;50.536;12.688;2023-09-08T00:49:41;11.60;99.90
22153;DHT22;11242;50.536;12.688;2023-09-08T00:52:07;11.70;99.90
22153;DHT22;11242;50.536;12.688;2023-09-08T00:54:32;11.70;99.90
22153;DHT22;11242;50.536;12.688;2023-09-08T00:57:01;11.70;99.90
22153;DHT22;11242;50.536;12.688;2023-09-08T00:59:27;11.60;99.90
22153;DHT22;11242;50.536;12.688;2023-09-08T01:01:53;11.60;99.90
22153;DHT22;11242;50.536;12.688;2023-09-08T01:04:20;11.70;99.90
22153;DHT22;11242;50.536;12.688;2023-09-08T01:06:46;11.60;99.90
22153;DHT22;11242;50.536;12.688;2023-09-08T01:09:12;11.70;99.90
22153;DHT22;11242;50.536;12.688;2023-09-08T01:11:39;11.70;99.90
22153;DHT22;11242;50.536;12.688;2023-09-08T01:14:05;11.70;99.90
22153;DHT22;11242;50.536;12.688;2023-09-08T01:16:30;11.70;99.90
22153;DHT22;11242;50.536;12.688;2023-09-08T01:18:56;11.70;99.90
22153;DHT22;11242;50.536;12.688;2023-09-08T01:26:41;11.70;99.90
22153;DHT22;11242;50.536;12.688;2023-09-08T01:29:09;11.70;99.90
22153;DHT22;11242;50.536;12.688;2023-09-08T01:31:36;11.70;99.90
22153;DHT22;11242;50.536;12.688;2023-09-08T01:34:04;11.70;99.90
22153;DHT22;11242;50.536;12.688;2023-09-08T01:36:35;11.70;99.90
22153;DHT22;11242;50.536;12.688;2023-09-08T01:39:01;11.60;99.90
22153;DHT22;11242;50.536;12.688;2023-09-08T01:41:27;11.60;99.90
22153;DHT22;11242;50.536;12.688;2023-09-08T01:43:53;11.50;99.90
22153;DHT22;11242;50.536;12.688;2023-09-08T01:46:20;11.40;99.90
22153;DHT22;11242;50.536;12.688;2023-09-08T01:48:45;11.40;99.90
22153;DHT22;11242;50.536;12.688;2023-09-08T01:51:11;11.30;99.90
22153;DHT22;11242;50.536;12.688;2023-09-08T01:53:36;11.40;99.90
22153;DHT22;11242;50.536;12.688;2023-09-08T01:56:02;11.40;99.90
22153;DHT22;11242;50.536;12.688;2023-09-08T01:58:28;11.40;99.90
22153;DHT22;11242;50.536;12.688;2023-09-08T02:00:56;11.40;99.90
22153;DHT22;11242;50.536;12.688;2023-09-08T02:03:25;11.40;99.90
22153;DHT22;11242;50.536;12.688;2023-09-08T02:05:51;11.30;99.90
22153;DHT22;11242;50.536;12.688;2023-09-08T02:08:16;11.40;99.90
22153;DHT22;11242;50.536;12.688;2023-09-08T02:10:42;11.40;99.90
22153;DHT22;11242;50.536;12.688;2023-09-08T02:13:07;11.30;99.90
22153;DHT22;11242;50.536;12.688;2023-09-08T02:15:35;11.20;99.90
22153;DHT22;11242;50.536;12.688;2023-09-08T02:18:01;11.30;99.90
22153;DHT22;11242;50.536;12.688;2023-09-08T02:20:27;11.30;99.90
22153;DHT22;11242;50.536;12.688;2023-09-08T02:22:54;11.30;99.90
22153;DHT22;11242;50.536;12.688;2023-09-08T02:25:20;11.20;99.90
22153;DHT22;11242;50.536;12.688;2023-09-08T02:27:48;11.30;99.90
22153;DHT22;11242;50.536;12.688;2023-09-08T02:30:14;11.30;99.90
22153;DHT22;11242;50.536;12.688;2023-09-08T02:32:40;11.20;99.90
22153;DHT22;11242;50.536;12.688;2023-09-08T02:35:08;11.20;99.90
22153;DHT22;11242;50.536;12.688;2023-09-08T02:37:34;11.30;99.90
22153;DHT22;11242;50.536;12.688;2023-09-08T02:40:00;11.20;99.90
22153;DHT22;11242;50.536;12.688;2023-09-08T02:42:25;11.20;99.90
22153;DHT22;11242;50.536;12.688;2023-09-08T02:44:52;11.30;99.90
22153;DHT22;11242;50.536;12.688;2023-09-08T02:47:18;11.30;99.90
22153;DHT22;11242;50.536;12.688;2023-09-08T02:49:44;11.20;99.90
22153;DHT22;11242;50.536;12.688;2023-09-08T02:52:09;11.30;99.90
22153;DHT22;11242;50.536;12.688;2023-09-08T02:54:35;11.30;99.90
22153;DHT22;11242;50.536;12.688;2023-09-08T02:57:00;11.30;99.90
22153;DHT22;11242;50.536;12.688;2023-09-08T02:59:26;11.30;99.90
22153;DHT22;11242;50.536;12.688;2023-09-08T03:01:51;11.30;99.90
22153;DHT22;11242;50.536;12.688;2023-09-08T03:04:17;11.30;99.90
22153;DHT22;11242;50.536;12.688;2023-09-08T03:06:42;11.30;99.90
22153;DHT22;11242;50.536;12.688;2023-09-08T03:09:08;11.40;99.90
22153;DHT22;11242;50.536;12.688;2023-09-08T03:11:34;11.40;99.90
22153;DHT22;11242;50.536;12.688;2023-09-08T03:13:59;11.40;99.90
22153;DHT22;11242;50.536;12.688;2023-09-08T03:16:25;11.40;99.90
22153;DHT22;11242;50.536;12.688;2023-09-08T03:18:51;11.40;99.90
22153;DHT22;11242;50.536;12.688;2023-09-08T03:21:17;11.40;99.90
22153;DHT22;11242;50.536;12.688;2023-09-08T03:23:43;11.40;99.90
22153;DHT22;11242;50.536;12.688;2023-09-08T03:26:10;11.40;99.90
22153;DHT22;11242;50.536;12.688;2023-09-08T03:28:36;11.40;99.90
22153;DHT22;11242;50.536;12.688;2023-09-08T03:31:03;11.50;99.90
22153;DHT22;11242;50.536;12.688;2023-09-08T03:33:31;11.50;99.90
22153;DHT22;11242;50.536;12.688;2023-09-08T03:35:56;11.40;99.90
22153;DHT22;11242;50.536;12.688;2023-09-08T03:38:23;11.40;99.90
22153;DHT22;11242;50.536;12.688;2023-09-08T03:40:49;11.50;99.90
22153;DHT22;11242;50.536;12.688;2023-09-08T03:43:15;11.50;99.90
22153;DHT22;11242;50.536;12.688;2023-09-08T03:45:40;11.50;99.90
22153;DHT22;11242;50.536;12.688;2023-09-08T03:48:07;11.40;99.90
22153;DHT22;11242;50.536;12.688;2023-09-08T03:50:34;11.50;99.90
22153;DHT22;11242;50.536;12.688;2023-09-08T03:53:00;11.60;99.90
22153;DHT22;11242;50.536;12.688;2023-09-08T03:55:26;11.60;99.90
22153;DHT22;11242;50.536;12.688;2023-09-08T03:57:52;11.60;99.90
22153;DHT22;11242;50.536;12.688;2023-09-08T04:00:17;11.50;99.90
22153;DHT22;11242;50.536;12.688;2023-09-08T04:02:51;11.40;99.90
22153;DHT22;11242;50.536;12.688;2023-09-08T04:05:17;11.40;99.90
22153;DHT22;11242;50.536;12.688;2023-09-08T04:07:44;11.40;99.90
22153;DHT22;11242;50.536;12.688;2023-09-08T04:10:10;11.40;99.90
22153;DHT22;11242;50.536;12.688;2023-09-08T04:12:36;11.30;99.90
22153;DHT22;11242;50.536;12.688;2023-09-08T04:15:02;11.40;99.90
22153;DHT22;11242;50.536;12.688;2023-09-08T04:17:27;11.60;99.90
22153;DHT22;11242;50.536;12.688;2023-09-08T04:19:54;11.50;99.90
22153;DHT22;11242;50.536;12.688;2023-09-08T04:22:20;11.50;99.90
22153;DHT22;11242;50.536;12.688;2023-09-08T04:24:45;11.50;99.90
22153;DHT22;11242;50.536;12.688;2023-09-08T04:27:11;11.40;99.90
22153;DHT22;11242;50.536;12.688;2023-09-08T04:29:37;11.40;99.90
22153;DHT22;11242;50.536;12.688;2023-09-08T04:32:03;11.40;99.90
22153;DHT22;11242;50.536;12.688;2023-09-08T04:34:39;11.30;99.90
22153;DHT22;11242;50.536;12.688;2023-09-08T04:37:05;11.40;99.90
22153;DHT22;11242;50.536;12.688;2023-09-08T04:39:32;11.30;99.90
22153;DHT22;11242;50.536;12.688;2023-09-08T04:41:58;11.30;99.90
22153;DHT22;11242;50.536;12.688;2023-09-08T04:44:23;11.30;99.90
22153;DHT22;11242;50.536;12.688;2023-09-08T04:46:50;11.30;99.90
22153;DHT22;11242;50.536;12.688;2023-09-08T04:49:16;11.30;99.90
22153;DHT22;11242;50.536;12.688;2023-09-08T04:51:43;11.40;99.90
22153;DHT22;11242;50.536;12.688;2023-09-08T04:54:10;11.50;99.90
22153;DHT22;11242;50.536;12.688;2023-09-08T04:56:37;11.50;99.90
22153;DHT22;11242;50.536;12.688;2023-09-08T04:59:03;11.50;99.90
22153;DHT22;11242;50.536;12.688;2023-09-08T05:01:29;11.50;99.90
22153;DHT22;11242;50.536;12.688;2023-09-08T05:03:59;11.50;99.90
22153;DHT22;11242;50.536;12.688;2023-09-08T05:06:26;11.40;99.90
22153;DHT22;11242;50.536;12.688;2023-09-08T05:08:52;11.50;99.90
22153;DHT22;11242;50.536;12.688;2023-09-08T05:11:18;11.50;99.90
22153;DHT22;11242;50.536;12.688;2023-09-08T05:13:48;11.50;99.90
22153;DHT22;11242;50.536;12.688;2023-09-08T05:16:13;11.40;99.90
22153;DHT22;11242;50.536;12.688;2023-09-08T05:18:44;11.30;99.90
22153;DHT22;11242;50.536;12.688;2023-09-08T05:21:10;11.30;99.90
22153;DHT22;11242;50.536;12.688;2023-09-08T05:23:36;11.30;99.90
22153;DHT22;11242;50.536;12.688;2023-09-08T05:26:01;11.30;99.90
22153;DHT22;11242;50.536;12.688;2023-09-08T05:28:27;11.40;99.90
22153;DHT22;11242;50.536;12.688;2023-09-08T05:30:54;11.40;99.90
22153;DHT22;11242;50.536;12.688;2023-09-08T05:33:20;11.40;99.90
22153;DHT22;11242;50.536;12.688;2023-09-08T05:35:46;11.50;99.90
22153;DHT22;11242;50.536;12.688;2023-09-08T05:38:12;11.50;99.90
22153;DHT22;11242;50.536;12.688;2023-09-08T05:40:39;11.50;99.90
22153;DHT22;11242;50.536;12.688;2023-09-08T05:43:05;11.70;99.90
22153;DHT22;11242;50.536;12.688;2023-09-08T05:45:34;12.40;99.90
22153;DHT22;11242;50.536;12.688;2023-09-08T05:48:01;14.00;99.90
22153;DHT22;11242;50.536;12.688;2023-09-08T05:50:27;15.70;99.90
22153;DHT22;11242;50.536;12.688;2023-09-08T05:52:53;17.10;99.90
22153;DHT22;11242;50.536;12.688;2023-09-08T05:55:19;18.10;99.90
22153;DHT22;11242;50.536;12.688;2023-09-08T05:57:45;19.10;99.90
22153;DHT22;11242;50.536;12.688;2023-09-08T06:00:11;19.80;99.90
22153;DHT22;11242;50.536;12.688;2023-09-08T06:02:44;20.60;99.90
22153;DHT22;11242;50.536;12.688;2023-09-08T06:05:12;21.30;99.90
22153;DHT22;11242;50.536;12.688;2023-09-08T06:07:38;22.00;99.90
22153;DHT22;11242;50.536;12.688;2023-09-08T06:10:04;22.80;99.90
22153;DHT22;11242;50.536;12.688;2023-09-08T06:12:30;23.30;99.90
22153;DHT22;11242;50.536;12.688;2023-09-08T06:14:56;24.10;99.90
22153;DHT22;11242;50.536;12.688;2023-09-08T06:17:21;24.70;99.90
22153;DHT22;11242;50.536;12.688;2023-09-08T06:19:47;25.30;98.00
22153;DHT22;11242;50.536;12.688;2023-09-08T06:22:13;26.00;93.70
22153;DHT22;11242;50.536;12.688;2023-09-08T06:24:39;27.20;88.70
22153;DHT22;11242;50.536;12.688;2023-09-08T06:27:05;27.20;83.30
22153;DHT22;11242;50.536;12.688;2023-09-08T06:29:31;27.50;81.70
22153;DHT22;11242;50.536;12.688;2023-09-08T06:31:57;27.50;79.40
22153;DHT22;11242;50.536;12.688;2023-09-08T06:34:22;27.30;80.30
22153;DHT22;11242;50.536;12.688;2023-09-08T06:36:49;27.30;78.00
22153;DHT22;11242;50.536;12.688;2023-09-08T06:39:14;27.20;77.50
22153;DHT22;11242;50.536;12.688;2023-09-08T06:41:40;28.20;73.50
22153;DHT22;11242;50.536;12.688;2023-09-08T06:44:08;28.70;72.80
22153;DHT22;11242;50.536;12.688;2023-09-08T06:46:34;28.40;73.40
22153;DHT22;11242;50.536;12.688;2023-09-08T06:48:59;28.90;71.00
22153;DHT22;11242;50.536;12.688;2023-09-08T06:51:25;28.40;70.80
22153;DHT22;11242;50.536;12.688;2023-09-08T06:53:55;29.00;70.80
22153;DHT22;11242;50.536;12.688;2023-09-08T06:56:22;29.70;66.00
22153;DHT22;11242;50.536;12.688;2023-09-08T06:58:47;30.70;65.10
22153;DHT22;11242;50.536;12.688;2023-09-08T07:01:13;30.10;66.50
22153;DHT22;11242;50.536;12.688;2023-09-08T07:03:39;30.70;64.60
22153;DHT22;11242;50.536;12.688;2023-09-08T07:06:07;31.90;59.50
22153;DHT22;11242;50.536;12.688;2023-09-08T07:08:33;32.60;58.40
22153;DHT22;11242;50.536;12.688;2023-09-08T07:10:59;32.10;58.20
22153;DHT22;11242;50.536;12.688;2023-09-08T07:13:24;32.70;57.20
22153;DHT22;11242;50.536;12.688;2023-09-08T07:15:50;31.40;54.00
22153;DHT22;11242;50.536;12.688;2023-09-08T07:18:16;31.00;58.70
22153;DHT22;11242;50.536;12.688;2023-09-08T07:20:49;31.30;56.90
22153;DHT22;11242;50.536;12.688;2023-09-08T07:23:16;31.50;55.80
22153;DHT22;11242;50.536;12.688;2023-09-08T07:25:47;31.80;56.40
22153;DHT22;11242;50.536;12.688;2023-09-08T07:28:14;32.60;52.20
22153;DHT22;11242;50.536;12.688;2023-09-08T07:30:40;33.50;50.10
22153;DHT22;11242;50.536;12.688;2023-09-08T07:33:05;33.80;45.80
22153;DHT22;11242;50.536;12.688;2023-09-08T07:35:32;33.30;46.90
22153;DHT22;11242;50.536;12.688;2023-09-08T07:37:57;33.40;46.80
22153;DHT22;11242;50.536;12.688;2023-09-08T07:40:24;33.30;47.70
22153;DHT22;11242;50.536;12.688;2023-09-08T07:42:50;33.10;46.00
22153;DHT22;11242;50.536;12.688;2023-09-08T07:45:16;33.10;47.10
22153;DHT22;11242;50.536;12.688;2023-09-08T07:47:41;31.60;46.80
22153;DHT22;11242;50.536;12.688;2023-09-08T07:50:26;31.60;47.80
22153;DHT22;11242;50.536;12.688;2023-09-08T07:52:54;32.40;45.60
22153;DHT22;11242;50.536;12.688;2023-09-08T07:55:21;32.70;45.20
22153;DHT22;11242;50.536;12.688;2023-09-08T07:57:53;32.70;46.70
22153;DHT22;11242;50.536;12.688;2023-09-08T08:00:19;32.90;44.50
22153;DHT22;11242;50.536;12.688;2023-09-08T08:02:54;33.50;44.20
22153;DHT22;11242;50.536;12.688;2023-09-08T08:05:20;33.00;44.10
22153;DHT22;11242;50.536;12.688;2023-09-08T08:07:46;31.20;45.40
22153;DHT22;11242;50.536;12.688;2023-09-08T08:10:12;30.90;46.70
22153;DHT22;11242;50.536;12.688;2023-09-08T08:12:39;30.10;46.80
22153;DHT22;11242;50.536;12.688;2023-09-08T08:15:05;30.50;47.00
22153;DHT22;11242;50.536;12.688;2023-09-08T08:17:31;30.90;44.80
22153;DHT22;11242;50.536;12.688;2023-09-08T08:19:57;30.00;46.90
22153;DHT22;11242;50.536;12.688;2023-09-08T08:22:33;30.30;46.70
22153;DHT22;11242;50.536;12.688;2023-09-08T08:24:58;29.50;45.90
22153;DHT22;11242;50.536;12.688;2023-09-08T08:27:24;29.00;47.90
22153;DHT22;11242;50.536;12.688;2023-09-08T08:29:50;29.90;46.70
22153;DHT22;11242;50.536;12.688;2023-09-08T08:32:16;30.40;46.40
22153;DHT22;11242;50.536;12.688;2023-09-08T08:34:42;31.30;45.70
22153;DHT22;11242;50.536;12.688;2023-09-08T08:37:08;32.50;44.70
22153;DHT22;11242;50.536;12.688;2023-09-08T08:39:33;33.40;43.80
22153;DHT22;11242;50.536;12.688;2023-09-08T08:42:06;32.80;42.60
22153;DHT22;11242;50.536;12.688;2023-09-08T08:44:32;32.10;44.00
22153;DHT22;11242;50.536;12.688;2023-09-08T08:46:58;32.80;44.50
22153;DHT22;11242;50.536;12.688;2023-09-08T08:49:26;34.10;42.50
22153;DHT22;11242;50.536;12.688;2023-09-08T08:51:52;35.50;41.10
22153;DHT22;11242;50.536;12.688;2023-09-08T08:54:19;35.60;40.30
22153;DHT22;11242;50.536;12.688;2023-09-08T08:56:45;33.30;41.20
22153;DHT22;11242;50.536;12.688;2023-09-08T08:59:12;32.30;43.80
22153;DHT22;11242;50.536;12.688;2023-09-08T09:01:39;33.00;41.50
22153;DHT22;11242;50.536;12.688;2023-09-08T09:04:07;33.30;41.40
22153;DHT22;11242;50.536;12.688;2023-09-08T09:06:34;32.60;42.20
22153;DHT22;11242;50.536;12.688;2023-09-08T09:09:00;31.80;43.10
22153;DHT22;11242;50.536;12.688;2023-09-08T09:11:26;31.80;44.40
22153;DHT22;11242;50.536;12.688;2023-09-08T09:13:52;30.30;43.90
22153;DHT22;11242;50.536;12.688;2023-09-08T09:16:18;28.90;47.00
22153;DHT22;11242;50.536;12.688;2023-09-08T09:18:59;28.30;47.50
22153;DHT22;11242;50.536;12.688;2023-09-08T09:21:46;27.50;49.80
22153;DHT22;11242;50.536;12.688;2023-09-08T09:26:55;26.20;49.80
22153;DHT22;11242;50.536;12.688;2023-09-08T09:29:20;25.80;50.30
22153;DHT22;11242;50.536;12.688;2023-09-08T09:32:05;25.80;53.20
22153;DHT22;11242;50.536;12.688;2023-09-08T09:34:32;26.00;51.40
22153;DHT22;11242;50.536;12.688;2023-09-08T09:36:57;26.10;51.00
22153;DHT22;11242;50.536;12.688;2023-09-08T09:39:25;25.90;50.90
22153;DHT22;11242;50.536;12.688;2023-09-08T09:41:56;26.00;51.80
22153;DHT22;11242;50.536;12.688;2023-09-08T09:44:22;25.90;48.80
22153;DHT22;11242;50.536;12.688;2023-09-08T09:46:48;25.90;50.00
22153;DHT22;11242;50.536;12.688;2023-09-08T09:49:16;26.00;50.80
22153;DHT22;11242;50.536;12.688;2023-09-08T09:51:48;26.00;51.10
22153;DHT22;11242;50.536;12.688;2023-09-08T09:54:15;26.00;50.30
22153;DHT22;11242;50.536;12.688;2023-09-08T09:56:41;25.80;50.70
22153;DHT22;11242;50.536;12.688;2023-09-08T09:59:11;25.90;49.80
22153;DHT22;11242;50.536;12.688;2023-09-08T10:01:38;26.00;50.30
22153;DHT22;11242;50.536;12.688;2023-09-08T10:04:05;26.00;49.40
22153;DHT22;11242;50.536;12.688;2023-09-08T10:06:32;26.10;48.30
22153;DHT22;11242;50.536;12.688;2023-09-08T10:09:03;26.30;47.50
22153;DHT22;11242;50.536;12.688;2023-09-08T10:11:55;26.40;50.50
22153;DHT22;11242;50.536;12.688;2023-09-08T10:14:21;26.40;49.40
22153;DHT22;11242;50.536;12.688;2023-09-08T10:16:48;26.40;46.30
22153;DHT22;11242;50.536;12.688;2023-09-08T10:19:17;26.40;46.70
22153;DHT22;11242;50.536;12.688;2023-09-08T10:21:46;26.50;45.90
22153;DHT22;11242;50.536;12.688;2023-09-08T10:24:28;26.50;47.40
22153;DHT22;11242;50.536;12.688;2023-09-08T10:27:00;26.60;44.90
22153;DHT22;11242;50.536;12.688;2023-09-08T10:29:28;26.50;46.90
22153;DHT22;11242;50.536;12.688;2023-09-08T10:31:55;26.50;45.30
22153;DHT22;11242;50.536;12.688;2023-09-08T10:34:23;26.50;45.40
22153;DHT22;11242;50.536;12.688;2023-09-08T10:36:49;26.40;42.80
22153;DHT22;11242;50.536;12.688;2023-09-08T10:39:34;26.30;41.90
22153;DHT22;11242;50.536;12.688;2023-09-08T10:47:12;26.40;41.50
22153;DHT22;11242;50.536;12.688;2023-09-08T10:49:39;26.40;40.60
22153;DHT22;11242;50.536;12.688;2023-09-08T10:52:08;26.50;41.40
22153;DHT22;11242;50.536;12.688;2023-09-08T10:54:45;26.50;40.70
22153;DHT22;11242;50.536;12.688;2023-09-08T10:57:17;26.60;40.80
22153;DHT22;11242;50.536;12.688;2023-09-08T10:59:56;26.60;41.40
22153;DHT22;11242;50.536;12.688;2023-09-08T11:02:41;26.70;41.10
22153;DHT22;11242;50.536;12.688;2023-09-08T11:05:11;26.70;40.20
22153;DHT22;11242;50.536;12.688;2023-09-08T11:07:39;26.80;40.10
22153;DHT22;11242;50.536;12.688;2023-09-08T11:10:06;26.80;39.90
22153;DHT22;11242;50.536;12.688;2023-09-08T11:12:32;26.80;40.80
22153;DHT22;11242;50.536;12.688;2023-09-08T11:15:03;26.80;38.10
22153;DHT22;11242;50.536;12.688;2023-09-08T11:17:34;26.90;39.50
22153;DHT22;11242;50.536;12.688;2023-09-08T11:20:01;26.80;39.40
22153;DHT22;11242;50.536;12.688;2023-09-08T11:22:36;26.70;38.30
22153;DHT22;11242;50.536;12.688;2023-09-08T11:25:02;26.80;39.00
22153;DHT22;11242;50.536;12.688;2023-09-08T11:27:31;26.90;39.10
22153;DHT22;11242;50.536;12.688;2023-09-08T11:29:57;27.00;39.60
22153;DHT22;11242;50.536;12.688;2023-09-08T11:32:24;27.20;38.90
22153;DHT22;11242;50.536;12.688;2023-09-08T11:34:50;27.30;38.70
22153;DHT22;11242;50.536;12.688;2023-09-08T11:37:17;27.30;38.70
22153;DHT22;11242;50.536;12.688;2023-09-08T11:39:45;27.30;40.40
22153;DHT22;11242;50.536;12.688;2023-09-08T11:42:15;27.20;38.90
22153;DHT22;11242;50.536;12.688;2023-09-08T11:44:41;27.10;38.60
22153;DHT22;11242;50.536;12.688;2023-09-08T11:47:09;27.20;39.20
22153;DHT22;11242;50.536;12.688;2023-09-08T11:49:40;27.30;40.50
22153;DHT22;11242;50.536;12.688;2023-09-08T11:52:06;27.30;40.60
22153;DHT22;11242;50.536;12.688;2023-09-08T11:54:33;27.30;38.10
22153;DHT22;11242;50.536;12.688;2023-09-08T11:57:01;27.40;40.50
22153;DHT22;11242;50.536;12.688;2023-09-08T11:59:28;27.30;40.70
22153;DHT22;11242;50.536;12.688;2023-09-08T12:01:55;27.50;41.00
22153;DHT22;11242;50.536;12.688;2023-09-08T12:04:22;27.70;42.00
22153;DHT22;11242;50.536;12.688;2023-09-08T12:06:52;27.60;40.50
22153;DHT22;11242;50.536;12.688;2023-09-08T12:09:20;27.50;40.40
22153;DHT22;11242;50.536;12.688;2023-09-08T12:11:46;27.40;40.60
22153;DHT22;11242;50.536;12.688;2023-09-08T12:14:13;27.60;42.10
22153;DHT22;11242;50.536;12.688;2023-09-08T12:16:40;27.60;41.80
22153;DHT22;11242;50.536;12.688;2023-09-08T12:19:06;27.70;40.10
22153;DHT22;11242;50.536;12.688;2023-09-08T12:21:34;27.70;38.40
22153;DHT22;11242;50.536;12.688;2023-09-08T12:24:00;27.70;40.80
22153;DHT22;11242;50.536;12.688;2023-09-08T12:26:26;27.80;39.50
22153;DHT22;11242;50.536;12.688;2023-09-08T12:28:51;27.60;37.30
22153;DHT22;11242;50.536;12.688;2023-09-08T12:31:17;27.40;39.30
22153;DHT22;11242;50.536;12.688;2023-09-08T12:33:44;27.40;38.40
22153;DHT22;11242;50.536;12.688;2023-09-08T12:36:14;27.40;38.90
22153;DHT22;11242;50.536;12.688;2023-09-08T12:38:40;27.40;38.90
22153;DHT22;11242;50.536;12.688;2023-09-08T12:41:06;27.40;39.60
22153;DHT22;11242;50.536;12.688;2023-09-08T12:43:32;27.40;38.50
22153;DHT22;11242;50.536;12.688;2023-09-08T12:45:57;27.40;38.80
22153;DHT22;11242;50.536;12.688;2023-09-08T12:48:23;27.40;38.80
22153;DHT22;11242;50.536;12.688;2023-09-08T12:50:49;27.60;39.80
22153;DHT22;11242;50.536;12.688;2023-09-08T12:53:15;27.60;40.00
22153;DHT22;11242;50.536;12.688;2023-09-08T12:55:43;27.50;40.60
22153;DHT22;11242;50.536;12.688;2023-09-08T12:58:09;27.50;42.40
22153;DHT22;11242;50.536;12.688;2023-09-08T13:00:34;27.40;42.30
22153;DHT22;11242;50.536;12.688;2023-09-08T13:03:00;27.50;42.40
22153;DHT22;11242;50.536;12.688;2023-09-08T13:05:27;27.60;42.10
22153;DHT22;11242;50.536;12.688;2023-09-08T13:07:53;27.60;42.50
22153;DHT22;11242;50.536;12.688;2023-09-08T13:10:19;27.70;44.80
22153;DHT22;11242;50.536;12.688;2023-09-08T13:12:45;27.70;44.80
22153;DHT22;11242;50.536;12.688;2023-09-08T13:15:11;27.60;45.70
22153;DHT22;11242;50.536;12.688;2023-09-08T13:17:37;27.70;46.70
22153;DHT22;11242;50.536;12.688;2023-09-08T13:20:03;27.70;46.50
22153;DHT22;11242;50.536;12.688;2023-09-08T13:22:29;27.60;46.40
22153;DHT22;11242;50.536;12.688;2023-09-08T13:24:54;27.60;45.10
22153;DHT22;11242;50.536;12.688;2023-09-08T13:27:20;27.50;44.80
22153;DHT22;11242;50.536;12.688;2023-09-08T13:29:46;27.40;45.60
22153;DHT22;11242;50.536;12.688;2023-09-08T13:32:11;27.50;46.30
22153;DHT22;11242;50.536;12.688;2023-09-08T13:34:37;27.60;47.20
22153;DHT22;11242;50.536;12.688;2023-09-08T13:37:04;27.50;46.70
22153;DHT22;11242;50.536;12.688;2023-09-08T13:39:29;27.50;47.90
22153;DHT22;11242;50.536;12.688;2023-09-08T13:41:59;27.50;46.20
22153;DHT22;11242;50.536;12.688;2023-09-08T13:44:25;27.50;47.40
22153;DHT22;11242;50.536;12.688;2023-09-08T13:46:51;27.50;47.80
22153;DHT22;11242;50.536;12.688;2023-09-08T13:49:17;27.60;47.20
22153;DHT22;11242;50.536;12.688;2023-09-08T13:51:44;27.60;47.90
22153;DHT22;11242;50.536;12.688;2023-09-08T13:54:11;27.60;47.90
22153;DHT22;11242;50.536;12.688;2023-09-08T13:56:40;27.60;47.00
22153;DHT22;11242;50.536;12.688;2023-09-08T13:59:06;27.60;47.20
22153;DHT22;11242;50.536;12.688;2023-09-08T14:01:36;27.60;47.60
22153;DHT22;11242;50.536;12.688;2023-09-08T14:04:03;27.50;48.00
22153;DHT22;11242;50.536;12.688;2023-09-08T14:06:31;27.50;48.40
22153;DHT22;11242;50.536;12.688;2023-09-08T14:08:57;27.50;49.40
22153;DHT22;11242;50.536;12.688;2023-09-08T14:11:23;27.30;49.40
22153;DHT22;11242;50.536;12.688;2023-09-08T14:13:48;27.20;49.80
22153;DHT22;11242;50.536;12.688;2023-09-08T14:16:14;27.10;49.70
22153;DHT22;11242;50.536;12.688;2023-09-08T14:18:40;27.00;49.60
22153;DHT22;11242;50.536;12.688;2023-09-08T14:21:06;27.00;47.30
22153;DHT22;11242;50.536;12.688;2023-09-08T14:23:33;27.00;48.40
22153;DHT22;11242;50.536;12.688;2023-09-08T14:25:59;27.00;48.50
22153;DHT22;11242;50.536;12.688;2023-09-08T14:28:25;27.00;48.50
22153;DHT22;11242;50.536;12.688;2023-09-08T14:30:52;27.00;49.80
22153;DHT22;11242;50.536;12.688;2023-09-08T14:33:17;27.00;50.50
22153;DHT22;11242;50.536;12.688;2023-09-08T14:35:44;26.80;50.20
22153;DHT22;11242;50.536;12.688;2023-09-08T14:38:10;26.60;50.30
22153;DHT22;11242;50.536;12.688;2023-09-08T14:40:35;26.60;50.80
22153;DHT22;11242;50.536;12.688;2023-09-08T14:43:01;26.60;49.80
22153;DHT22;11242;50.536;12.688;2023-09-08T14:45:27;26.50;50.00
22153;DHT22;11242;50.536;12.688;2023-09-08T14:47:53;26.50;50.60
22153;DHT22;11242;50.536;12.688;2023-09-08T14:50:19;26.60;50.10
22153;DHT22;11242;50.536;12.688;2023-09-08T14:52:45;26.60;51.40
22153;DHT22;11242;50.536;12.688;2023-09-08T14:55:10;26.50;50.90
22153;DHT22;11242;50.536;12.688;2023-09-08T14:57:36;26.50;50.20
22153;DHT22;11242;50.536;12.688;2023-09-08T15:00:05;26.50;50.30
22153;DHT22;11242;50.536;12.688;2023-09-08T15:02:31;26.40;51.80
22153;DHT22;11242;50.536;12.688;2023-09-08T15:04:57;26.40;51.90
22153;DHT22;11242;50.536;12.688;2023-09-08T15:07:22;26.40;52.40
22153;DHT22;11242;50.536;12.688;2023-09-08T15:09:48;26.30;52.30
22153;DHT22;11242;50.536;12.688;2023-09-08T15:12:13;26.20;53.00
22153;DHT22;11242;50.536;12.688;2023-09-08T15:14:39;26.20;53.30
22153;DHT22;11242;50.536;12.688;2023-09-08T15:17:05;26.10;53.60
22153;DHT22;11242;50.536;12.688;2023-09-08T15:19:31;26.10;53.70
22153;DHT22;11242;50.536;12.688;2023-09-08T15:21:58;26.10;53.40
22153;DHT22;11242;50.536;12.688;2023-09-08T15:24:24;26.00;53.70
22153;DHT22;11242;50.536;12.688;2023-09-08T15:26:49;26.00;52.90